createdAt,value
2023-05-05T00:00:13.907Z,10.83
2023-05-05T00:01:13.955Z,10.51
2023-05-05T00:02:14.050Z,10.39
2023-05-05T00:03:14.177Z,10.47
2023-05-05T00:04:14.151Z,10.10
2023-05-05T00:05:14.202Z,10.90
2023-05-05T00:06:14.613Z,10.60
2023-05-05T00:07:14.315Z,10.66
2023-05-05T00:08:14.343Z,10.98
2023-05-05T00:09:14.406Z,10.41
2023-05-05T00:10:14.464Z,11.10
2023-05-05T00:11:14.539Z,10.72
2023-05-05T00:12:14.590Z,10.80
2023-05-05T00:13:14.711Z,11.22
2023-05-05T00:14:14.684Z,10.59
2023-05-05T00:15:14.759Z,11.13
2023-05-05T00:16:14.815Z,10.31
2023-05-05T00:17:14.906Z,10.43
2023-05-05T00:18:14.935Z,10.62
2023-05-05T00:19:14.990Z,11.02
2023-05-05T00:20:15.049Z,10.36
2023-05-05T00:21:15.102Z,10.92
2023-05-05T00:22:15.142Z,11.32
2023-05-05T00:23:15.188Z,11.26
2023-05-05T00:24:15.283Z,10.96
2023-05-05T00:25:15.314Z,10.86
2023-05-05T00:26:15.390Z,11.73
2023-05-05T00:27:15.418Z,11.78
2023-05-05T00:28:15.544Z,11.68
2023-05-05T00:29:15.537Z,12.97
2023-05-05T00:30:15.603Z,13.41
2023-05-05T00:31:15.650Z,12.64
2023-05-05T00:32:15.723Z,13.42
2023-05-05T00:33:15.799Z,12.95
2023-05-05T00:34:15.840Z,12.97
2023-05-05T00:35:15.894Z,12.43
2023-05-05T00:36:15.956Z,12.43
2023-05-05T00:37:15.999Z,12.84
2023-05-05T00:38:16.046Z,13.63
2023-05-05T00:39:16.113Z,12.92
2023-05-05T00:40:16.163Z,13.43
2023-05-05T00:41:16.226Z,12.95
2023-05-05T00:42:16.280Z,12.89
2023-05-05T00:43:16.370Z,13.66
2023-05-05T00:44:16.405Z,13.60
2023-05-05T00:45:16.456Z,13.74
2023-05-05T00:46:16.526Z,14.14
2023-05-05T00:47:16.615Z,13.75
2023-05-05T00:48:16.636Z,14.60
2023-05-05T00:49:16.730Z,14.43
2023-05-05T00:50:16.771Z,13.73
2023-05-05T00:51:16.821Z,13.65
2023-05-05T00:52:16.847Z,13.93
2023-05-05T00:53:16.904Z,14.26
2023-05-05T00:54:16.963Z,14.85
2023-05-05T00:55:17.020Z,16.21
2023-05-05T00:56:17.072Z,15.26
2023-05-05T00:57:17.128Z,14.53
2023-05-05T00:58:17.176Z,15.33
2023-05-05T00:59:17.241Z,15.93
2023-05-05T01:00:17.293Z,17.30
2023-05-05T01:01:17.394Z,17.17
2023-05-05T01:02:17.398Z,19.35
2023-05-05T01:03:17.513Z,20.03
2023-05-05T01:04:17.533Z,20.19
2023-05-05T01:05:17.560Z,22.24
2023-05-05T01:06:17.616Z,20.79
2023-05-05T01:07:17.669Z,20.44
2023-05-05T01:08:17.715Z,21.20
2023-05-05T01:09:17.771Z,21.15
2023-05-05T01:10:20.279Z,22.02
2023-05-05T01:11:17.821Z,22.02
2023-05-05T01:12:17.798Z,22.63
2023-05-05T01:13:17.797Z,23.29
2023-05-05T01:14:17.805Z,21.91
2023-05-05T01:15:17.788Z,22.37
2023-05-05T01:16:17.780Z,24.15
2023-05-05T01:17:17.749Z,23.62
2023-05-05T01:18:17.735Z,24.35
2023-05-05T01:19:17.769Z,23.36
2023-05-05T01:20:17.774Z,24.47
2023-05-05T01:21:17.743Z,25.08
2023-05-05T01:22:17.711Z,23.23
2023-05-05T01:23:17.704Z,24.10
2023-05-05T01:24:17.703Z,25.64
2023-05-05T01:25:17.699Z,23.54
2023-05-05T01:26:17.706Z,26.41
2023-05-05T01:27:17.720Z,26.00
2023-05-05T01:28:17.685Z,25.63
2023-05-05T01:29:17.677Z,26.51
2023-05-05T01:30:17.656Z,25.96
2023-05-05T01:31:17.720Z,25.92
2023-05-05T01:32:17.686Z,25.81
2023-05-05T01:33:17.638Z,26.82
2023-05-05T01:34:17.638Z,27.66
2023-05-05T01:35:17.615Z,25.83
2023-05-05T01:36:17.626Z,26.01
2023-05-05T01:37:17.620Z,26.49
2023-05-05T01:38:17.607Z,26.08
2023-05-05T01:39:17.587Z,27.03
2023-05-05T01:40:17.601Z,25.92
2023-05-05T01:41:17.614Z,26.29
2023-05-05T01:42:17.579Z,24.86
2023-05-05T01:43:17.584Z,27.01
2023-05-05T01:44:17.567Z,25.56
2023-05-05T01:45:17.562Z,25.33
2023-05-05T01:46:17.593Z,25.40
2023-05-05T01:47:17.557Z,26.08
2023-05-05T01:48:17.542Z,27.62
2023-05-05T01:49:17.563Z,26.56
2023-05-05T01:50:17.523Z,25.64
2023-05-05T01:51:17.513Z,25.43
2023-05-05T01:52:17.512Z,26.30
2023-05-05T01:53:17.525Z,25.35
2023-05-05T01:54:17.501Z,24.57
2023-05-05T01:55:17.494Z,24.38
2023-05-05T01:56:17.542Z,24.96
2023-05-05T01:57:17.561Z,27.31
2023-05-05T01:58:17.623Z,26.40
2023-05-05T01:59:17.667Z,27.88
2023-05-05T02:00:17.712Z,27.62
2023-05-05T02:01:17.786Z,26.23
2023-05-05T02:02:17.839Z,25.74
2023-05-05T02:03:17.883Z,27.79
2023-05-05T02:04:17.897Z,27.92
2023-05-05T02:05:17.934Z,26.19
2023-05-05T02:06:17.987Z,26.12
2023-05-05T02:07:18.028Z,25.40
2023-05-05T02:08:18.053Z,26.65
2023-05-05T02:09:18.116Z,26.85
2023-05-05T02:10:18.140Z,27.82
2023-05-05T02:11:18.202Z,26.06
2023-05-05T02:12:18.233Z,26.14
2023-05-05T02:13:18.395Z,26.40
2023-05-05T02:14:18.328Z,28.52
2023-05-05T02:15:18.373Z,26.54
2023-05-05T02:16:18.528Z,27.50
2023-05-05T02:17:18.456Z,26.64
2023-05-05T02:18:18.487Z,27.70
2023-05-05T02:19:18.529Z,27.35
2023-05-05T02:20:18.579Z,26.62
2023-05-05T02:21:18.647Z,28.28
2023-05-05T02:22:18.680Z,28.09
2023-05-05T02:23:18.742Z,28.21
2023-05-05T02:24:18.779Z,26.87
2023-05-05T02:25:18.809Z,28.45
2023-05-05T02:26:18.893Z,26.88
2023-05-05T02:27:18.910Z,27.03
2023-05-05T02:28:18.968Z,27.12
2023-05-05T02:29:19.017Z,27.37
2023-05-05T02:30:19.050Z,28.33
2023-05-05T02:31:19.183Z,28.32
2023-05-05T02:32:19.144Z,27.98
2023-05-05T02:33:19.222Z,28.56
2023-05-05T02:34:19.257Z,27.38
2023-05-05T02:35:19.286Z,27.93
2023-05-05T02:36:19.333Z,26.78
2023-05-05T02:37:19.379Z,27.67
2023-05-05T02:38:19.438Z,28.10
2023-05-05T02:39:19.487Z,26.95
2023-05-05T02:40:19.519Z,28.61
2023-05-05T02:41:19.584Z,26.71
2023-05-05T02:42:19.630Z,26.75
2023-05-05T02:43:19.738Z,26.85
2023-05-05T02:44:19.727Z,26.70
2023-05-05T02:45:19.747Z,26.69
2023-05-05T02:46:19.866Z,25.89
2023-05-05T02:47:19.835Z,25.30
2023-05-05T02:48:19.853Z,25.92
2023-05-05T02:49:19.898Z,26.02
2023-05-05T02:50:19.952Z,28.30
2023-05-05T02:51:19.973Z,28.16
2023-05-05T02:52:20.031Z,28.73
2023-05-05T02:53:20.076Z,26.36
2023-05-05T02:54:20.117Z,28.41
2023-05-05T02:55:20.179Z,27.93
2023-05-05T02:56:20.198Z,27.30
2023-05-05T02:57:20.242Z,27.84
2023-05-05T02:58:20.289Z,28.47
2023-05-05T02:59:20.337Z,27.64
2023-05-05T03:00:20.391Z,26.80
2023-05-05T03:01:20.441Z,27.20
2023-05-05T03:02:20.486Z,25.94
2023-05-05T03:03:20.561Z,26.79
2023-05-05T03:04:20.526Z,25.73
2023-05-05T03:05:20.582Z,25.63
2023-05-05T03:06:20.630Z,27.64
2023-05-05T03:07:20.651Z,27.06
2023-05-05T03:08:20.703Z,25.30
2023-05-05T03:09:20.765Z,27.23
2023-05-05T03:10:20.806Z,25.88
2023-05-05T03:11:20.857Z,27.47
2023-05-05T03:12:20.874Z,27.83
2023-05-05T03:13:20.926Z,25.80
2023-05-05T03:14:20.941Z,26.42
2023-05-05T03:15:21.003Z,26.14
2023-05-05T03:16:21.160Z,25.20
2023-05-05T03:17:21.123Z,25.30
2023-05-05T03:18:21.138Z,25.10
2023-05-05T03:19:21.178Z,25.04
2023-05-05T03:20:21.234Z,25.21
2023-05-05T03:21:21.276Z,25.85
2023-05-05T03:22:21.308Z,25.08
2023-05-05T03:23:21.356Z,25.56
2023-05-05T03:24:21.395Z,24.61
2023-05-05T03:25:21.461Z,22.65
2023-05-05T03:26:21.524Z,24.12
2023-05-05T03:27:21.559Z,22.77
2023-05-05T03:28:21.574Z,23.33
2023-05-05T03:29:21.631Z,23.45
2023-05-05T03:30:21.681Z,24.27
2023-05-05T03:31:21.763Z,25.37
2023-05-05T03:32:21.755Z,24.26
2023-05-05T03:33:21.814Z,24.88
2023-05-05T03:34:21.828Z,24.03
2023-05-05T03:35:21.888Z,23.73
2023-05-05T03:36:21.941Z,23.73
2023-05-05T03:37:21.984Z,24.64
2023-05-05T03:38:22.022Z,25.80
2023-05-05T03:39:22.057Z,25.59
2023-05-05T03:40:29.668Z,23.62
2023-05-05T03:41:23.088Z,23.65
2023-05-05T03:42:22.088Z,23.91
2023-05-05T03:43:22.075Z,24.44
2023-05-05T03:44:22.078Z,25.07
2023-05-05T03:45:22.057Z,25.56
2023-05-05T03:46:22.102Z,25.82
2023-05-05T03:47:22.042Z,25.88
2023-05-05T03:48:22.025Z,25.88
2023-05-05T03:49:22.035Z,25.96
2023-05-05T03:50:22.004Z,25.85
2023-05-05T03:51:22.005Z,24.78
2023-05-05T03:52:22.005Z,24.90
2023-05-05T03:53:22.024Z,26.03
2023-05-05T03:54:22.065Z,24.47
2023-05-05T03:55:22.104Z,24.68
2023-05-05T03:56:22.163Z,24.65
2023-05-05T03:57:22.205Z,25.33
2023-05-05T03:58:22.245Z,25.09
2023-05-05T03:59:22.286Z,24.22
2023-05-05T04:00:22.334Z,24.32
2023-05-05T04:01:22.364Z,24.31
2023-05-05T04:02:22.475Z,24.69
2023-05-05T04:03:22.727Z,23.41
2023-05-05T04:04:22.593Z,23.87
2023-05-05T04:05:22.527Z,23.98
2023-05-05T04:06:22.594Z,23.94
2023-05-05T04:07:22.633Z,25.20
2023-05-05T04:08:22.670Z,23.69
2023-05-05T04:09:22.705Z,23.56
2023-05-05T04:10:22.750Z,25.50
2023-05-05T04:11:22.786Z,23.74
2023-05-05T04:12:22.832Z,24.66
2023-05-05T04:13:22.876Z,24.85
2023-05-05T04:14:22.932Z,24.15
2023-05-05T04:15:22.970Z,24.41
2023-05-05T04:16:23.106Z,24.28
2023-05-05T04:17:23.074Z,23.56
2023-05-05T04:18:23.114Z,23.73
2023-05-05T04:19:23.188Z,24.06
2023-05-05T04:20:23.209Z,23.55
2023-05-05T04:21:23.268Z,23.31
2023-05-05T04:22:23.295Z,24.29
2023-05-05T04:23:23.368Z,23.30
2023-05-05T04:24:23.385Z,22.91
2023-05-05T04:25:23.452Z,23.02
2023-05-05T04:26:23.506Z,24.67
2023-05-05T04:27:23.536Z,23.06
2023-05-05T04:28:23.573Z,24.33
2023-05-05T04:29:23.615Z,23.78
2023-05-05T04:30:23.664Z,23.70
2023-05-05T04:31:23.794Z,23.33
2023-05-05T04:32:23.768Z,22.99
2023-05-05T04:33:23.806Z,22.86
2023-05-05T04:34:23.838Z,22.79
2023-05-05T04:35:23.881Z,22.33
2023-05-05T04:36:23.953Z,22.88
2023-05-05T04:37:23.980Z,23.61
2023-05-05T04:38:24.017Z,21.77
2023-05-05T04:39:24.059Z,22.56
2023-05-05T04:40:24.106Z,22.61
2023-05-05T04:41:24.150Z,21.48
2023-05-05T04:42:24.176Z,21.59
2023-05-05T04:43:24.251Z,20.11
2023-05-05T04:44:24.257Z,20.70
2023-05-05T04:45:24.303Z,20.29
2023-05-05T04:46:24.352Z,20.61
2023-05-05T04:47:24.375Z,20.23
2023-05-05T04:48:24.440Z,20.41
2023-05-05T04:49:24.464Z,20.12
2023-05-05T04:50:24.501Z,20.80
2023-05-05T04:51:24.564Z,20.22
2023-05-05T04:52:24.588Z,18.37
2023-05-05T04:53:24.630Z,19.44
2023-05-05T04:54:24.651Z,19.76
2023-05-05T04:55:24.713Z,18.66
2023-05-05T04:56:24.758Z,20.17
2023-05-05T04:57:24.793Z,18.59
2023-05-05T04:58:24.831Z,18.31
2023-05-05T04:59:24.878Z,18.19
2023-05-05T05:00:24.901Z,17.98
2023-05-05T05:01:25.011Z,17.73
2023-05-05T05:02:24.986Z,17.14
2023-05-05T05:03:25.085Z,16.87
2023-05-05T05:04:25.020Z,17.11
2023-05-05T05:05:25.025Z,16.92
2023-05-05T05:06:25.036Z,17.13
2023-05-05T05:07:25.027Z,16.78
2023-05-05T05:08:24.997Z,17.12
2023-05-05T05:09:24.988Z,16.87
2023-05-05T05:10:24.978Z,17.06
2023-05-05T05:11:24.989Z,17.72
2023-05-05T05:12:25.016Z,16.94
2023-05-05T05:13:25.006Z,18.11
2023-05-05T05:14:24.955Z,18.48
2023-05-05T05:15:24.965Z,17.77
2023-05-05T05:16:24.974Z,18.64
2023-05-05T05:17:25.021Z,19.39
2023-05-05T05:18:24.921Z,19.95
2023-05-05T05:19:24.933Z,21.23
2023-05-05T05:20:24.925Z,21.53
2023-05-05T05:21:24.902Z,21.98
2023-05-05T05:22:24.914Z,22.57
2023-05-05T05:23:24.895Z,21.60
2023-05-05T05:24:24.888Z,22.37
2023-05-05T05:25:24.885Z,21.83
2023-05-05T05:26:24.884Z,23.06
2023-05-05T05:27:24.882Z,23.14
2023-05-05T05:28:25.271Z,18.39
2023-05-05T05:29:24.917Z,16.95
2023-05-05T05:30:24.915Z,17.14
2023-05-05T05:31:24.956Z,18.14
2023-05-05T05:32:24.938Z,18.87
2023-05-05T05:33:25.265Z,19.42
2023-05-05T05:34:24.972Z,22.68
2023-05-05T05:35:24.970Z,24.56
2023-05-05T05:36:24.951Z,26.58
2023-05-05T05:37:24.989Z,27.51
2023-05-05T05:38:24.970Z,30.87
2023-05-05T05:39:24.973Z,30.89
2023-05-05T05:40:24.964Z,31.88
2023-05-05T05:41:25.018Z,34.03
2023-05-05T05:42:25.043Z,37.67
2023-05-05T05:43:25.253Z,40.15
2023-05-05T05:44:25.179Z,42.31
2023-05-05T05:45:25.220Z,45.86
2023-05-05T05:46:25.333Z,48.39
2023-05-05T05:47:25.317Z,53.14
2023-05-05T05:48:25.471Z,55.18
2023-05-05T05:49:25.431Z,57.97
2023-05-05T05:50:25.481Z,60.57
2023-05-05T05:51:25.568Z,64.18
2023-05-05T05:52:25.602Z,64.96
2023-05-05T05:53:25.647Z,68.62
2023-05-05T05:54:25.690Z,70.82
2023-05-05T05:55:25.761Z,70.07
2023-05-05T05:56:25.837Z,71.12
2023-05-05T05:57:25.884Z,73.34
2023-05-05T05:58:25.950Z,71.12
2023-05-05T05:59:26.007Z,71.24
2023-05-05T06:00:26.056Z,69.13
2023-05-05T06:01:26.077Z,67.10
2023-05-05T06:02:26.183Z,69.26
2023-05-05T06:03:26.260Z,71.05
2023-05-05T06:04:26.274Z,72.22
2023-05-05T06:05:26.260Z,75.80
2023-05-05T06:06:26.300Z,75.75
2023-05-05T06:07:26.367Z,78.08
2023-05-05T06:08:26.879Z,77.20
2023-05-05T06:09:26.431Z,78.80
2023-05-05T06:10:28.358Z,79.21
2023-05-05T06:11:26.511Z,80.01
2023-05-05T06:12:26.577Z,80.23
2023-05-05T06:13:26.646Z,81.13
2023-05-05T06:14:26.676Z,79.29
2023-05-05T06:15:26.669Z,82.30
2023-05-05T06:16:26.818Z,82.49
2023-05-05T06:17:26.758Z,82.05
2023-05-05T06:18:27.328Z,82.35
2023-05-05T06:19:26.841Z,81.91
2023-05-05T06:20:26.884Z,81.83
2023-05-05T06:21:26.933Z,81.80
2023-05-05T06:22:26.953Z,82.27
2023-05-05T06:23:27.002Z,81.54
2023-05-05T06:24:27.025Z,81.37
2023-05-05T06:25:27.109Z,79.44
2023-05-05T06:26:27.116Z,78.39
2023-05-05T06:27:27.179Z,75.44
2023-05-05T06:28:27.349Z,71.03
2023-05-05T06:29:27.258Z,70.63
2023-05-05T06:30:27.301Z,68.46
2023-05-05T06:31:27.856Z,61.98
2023-05-05T06:32:27.408Z,61.74
2023-05-05T06:33:27.895Z,61.09
2023-05-05T06:34:27.488Z,63.86
2023-05-05T06:35:27.552Z,72.47
2023-05-05T06:36:27.567Z,88.57
2023-05-05T06:37:27.770Z,91.24
2023-05-05T06:38:27.647Z,95.94
2023-05-05T06:39:27.644Z,93.86
2023-05-05T06:40:27.671Z,99.99
2023-05-05T06:41:27.708Z,98.54
2023-05-05T06:42:27.739Z,93.99
2023-05-05T06:43:28.297Z,95.11
2023-05-05T06:44:27.818Z,92.66
2023-05-05T06:45:27.890Z,92.94
2023-05-05T06:46:27.945Z,90.01
2023-05-05T06:47:28.284Z,83.94
2023-05-05T06:48:28.000Z,82.14
2023-05-05T06:49:28.036Z,78.43
2023-05-05T06:50:28.106Z,70.42
2023-05-05T06:51:28.121Z,72.21
2023-05-05T06:52:28.170Z,71.40
2023-05-05T06:53:28.232Z,70.33
2023-05-05T06:54:28.253Z,68.37
2023-05-05T06:55:28.329Z,69.04
2023-05-05T06:56:28.348Z,66.62
2023-05-05T06:57:28.499Z,65.32
2023-05-05T06:58:28.435Z,65.76
2023-05-05T06:59:28.459Z,64.94
2023-05-05T07:00:28.605Z,63.55
2023-05-05T07:01:28.586Z,61.57
2023-05-05T07:02:28.592Z,60.45
2023-05-05T07:03:28.704Z,59.62
2023-05-05T07:04:28.702Z,51.55
2023-05-05T07:05:28.729Z,51.89
2023-05-05T07:06:28.762Z,54.46
2023-05-05T07:07:28.825Z,55.71
2023-05-05T07:08:29.314Z,54.09
2023-05-05T07:09:28.895Z,51.35
2023-05-05T07:10:28.919Z,49.16
2023-05-05T07:11:28.990Z,51.36
2023-05-05T07:12:29.027Z,54.42
2023-05-05T07:13:29.128Z,51.97
2023-05-05T07:14:29.093Z,49.19
2023-05-05T07:15:29.763Z,47.36
2023-05-05T07:16:29.225Z,47.37
2023-05-05T07:17:29.268Z,48.87
2023-05-05T07:18:29.242Z,49.18
2023-05-05T07:19:29.298Z,47.34
2023-05-05T07:20:29.328Z,38.07
2023-05-05T07:21:29.366Z,34.25
2023-05-05T07:22:29.416Z,35.78
2023-05-05T07:23:29.459Z,37.61
2023-05-05T07:24:29.804Z,33.45
2023-05-05T07:25:29.548Z,34.23
2023-05-05T07:26:29.583Z,34.28
2023-05-05T07:27:29.595Z,33.90
2023-05-05T07:28:29.676Z,31.56
2023-05-05T07:29:29.871Z,32.25
2023-05-05T07:30:29.737Z,30.97
2023-05-05T07:31:29.800Z,30.14
2023-05-05T07:32:29.881Z,31.05
2023-05-05T07:33:29.856Z,32.16
2023-05-05T07:34:29.889Z,32.21
2023-05-05T07:35:29.914Z,33.67
2023-05-05T07:36:29.944Z,36.12
2023-05-05T07:37:29.980Z,36.40
2023-05-05T07:38:30.001Z,35.87
2023-05-05T07:39:30.034Z,35.04
2023-05-05T07:40:30.101Z,34.54
2023-05-05T07:41:30.124Z,32.86
2023-05-05T07:42:30.152Z,33.40
2023-05-05T07:43:30.195Z,33.51
2023-05-05T07:44:30.232Z,33.98
2023-05-05T07:45:30.310Z,34.66
2023-05-05T07:46:30.377Z,35.92
2023-05-05T07:47:30.424Z,37.15
2023-05-05T07:48:30.408Z,37.79
2023-05-05T07:49:30.812Z,38.39
2023-05-05T07:50:30.458Z,40.47
2023-05-05T07:51:31.565Z,34.86
2023-05-05T07:52:45.012Z,32.66
2023-05-05T07:53:31.537Z,30.97
2023-05-05T07:54:30.820Z,28.62
2023-05-05T07:55:30.535Z,26.63
2023-05-05T07:56:30.493Z,26.54
2023-05-05T07:57:30.511Z,26.15
2023-05-05T07:58:30.477Z,25.69
2023-05-05T07:59:30.823Z,25.52
2023-05-05T08:00:30.465Z,25.93
2023-05-05T08:01:30.522Z,25.30
2023-05-05T08:02:30.525Z,24.95
2023-05-05T08:03:30.558Z,25.51
2023-05-05T08:04:30.474Z,25.52
2023-05-05T08:05:30.438Z,25.41
2023-05-05T08:06:30.431Z,25.15
2023-05-05T08:07:30.472Z,26.14
2023-05-05T08:08:30.469Z,26.38
2023-05-05T08:09:30.807Z,24.79
2023-05-05T08:10:30.569Z,26.18
2023-05-05T08:11:30.583Z,25.26
2023-05-05T08:12:30.613Z,25.44
2023-05-05T08:13:30.667Z,22.46
2023-05-05T08:14:30.673Z,21.24
2023-05-05T08:15:30.711Z,19.94
2023-05-05T08:16:31.448Z,19.17
2023-05-05T08:17:30.982Z,19.49
2023-05-05T08:18:30.770Z,16.95
2023-05-05T08:19:30.849Z,16.02
2023-05-05T08:20:30.858Z,15.37
2023-05-05T08:21:30.903Z,15.38
2023-05-05T08:22:30.906Z,11.52
2023-05-05T08:23:31.030Z,8.38
2023-05-05T08:24:31.328Z,8.62
2023-05-05T08:25:31.021Z,8.71
2023-05-05T08:26:31.038Z,8.60
2023-05-05T08:27:31.058Z,8.45
2023-05-05T08:28:31.090Z,7.96
2023-05-05T08:29:31.175Z,7.42
2023-05-05T08:30:31.200Z,6.26
2023-05-05T08:31:31.227Z,5.65
2023-05-05T08:32:31.297Z,5.15
2023-05-05T08:33:31.344Z,4.33
2023-05-05T08:34:31.339Z,4.04
2023-05-05T08:35:31.376Z,3.97
2023-05-05T08:36:31.425Z,3.61
2023-05-05T08:37:31.508Z,3.83
2023-05-05T08:38:31.522Z,2.96
2023-05-05T08:39:31.596Z,2.71
2023-05-05T08:40:31.606Z,3.22
2023-05-05T08:41:31.641Z,3.16
2023-05-05T08:42:37.145Z,3.77
2023-05-05T08:43:32.672Z,3.78
2023-05-05T08:44:31.680Z,3.79
2023-05-05T08:45:31.664Z,4.06
2023-05-05T08:46:31.826Z,4.09
2023-05-05T08:47:31.884Z,5.51
2023-05-05T08:48:31.629Z,5.94
2023-05-05T08:49:31.676Z,6.46
2023-05-05T08:50:31.632Z,6.80
2023-05-05T08:51:31.660Z,5.35
2023-05-05T08:52:31.659Z,5.27
2023-05-05T08:53:31.603Z,5.43
2023-05-05T08:54:31.831Z,5.26
2023-05-05T08:55:31.623Z,4.80
2023-05-05T08:56:31.595Z,4.97
2023-05-05T08:57:31.587Z,4.25
2023-05-05T08:58:31.572Z,3.46
2023-05-05T08:59:31.594Z,3.13
2023-05-05T09:00:31.538Z,2.33
2023-05-05T09:01:31.597Z,1.88
2023-05-05T09:02:31.635Z,2.02
2023-05-05T09:03:31.551Z,1.32
2023-05-05T09:04:31.537Z,1.33
2023-05-05T09:05:31.569Z,1.50
2023-05-05T09:06:31.502Z,1.41
2023-05-05T09:07:31.518Z,1.46
2023-05-05T09:08:31.514Z,1.66
2023-05-05T09:09:31.497Z,1.70
2023-05-05T09:10:31.493Z,1.96
2023-05-05T09:11:31.490Z,2.17
2023-05-05T09:12:31.488Z,2.24
2023-05-05T09:13:31.518Z,2.60
2023-05-05T09:14:31.543Z,2.60
2023-05-05T09:15:31.580Z,2.48
2023-05-05T09:16:31.604Z,1.86
2023-05-05T09:17:31.672Z,1.90
2023-05-05T09:18:31.682Z,1.54
2023-05-05T09:19:31.766Z,1.30
2023-05-05T09:20:31.782Z,1.42
2023-05-05T09:21:31.909Z,1.45
2023-05-05T09:22:31.877Z,1.44
2023-05-05T09:23:31.940Z,1.69
2023-05-05T09:24:31.981Z,1.38
2023-05-05T09:25:31.998Z,1.03
2023-05-05T09:26:32.046Z,0.96
2023-05-05T09:27:32.056Z,1.30
2023-05-05T09:28:32.146Z,1.12
2023-05-05T09:29:32.097Z,1.33
2023-05-05T09:30:32.138Z,1.08
2023-05-05T09:31:32.169Z,0.97
2023-05-05T09:32:32.397Z,0.95
2023-05-05T09:33:32.237Z,0.65
2023-05-05T09:34:32.262Z,0.49
2023-05-05T09:35:32.314Z,0.46
2023-05-05T09:36:32.337Z,0.50
2023-05-05T09:37:32.457Z,0.58
2023-05-05T09:38:32.501Z,0.39
2023-05-05T09:39:32.555Z,0.46
2023-05-05T09:40:32.571Z,0.56
2023-05-05T09:41:32.644Z,0.96
2023-05-05T09:42:32.649Z,1.19
2023-05-05T09:43:32.636Z,1.47
2023-05-05T09:44:32.637Z,1.77
2023-05-05T09:45:32.709Z,2.19
2023-05-05T09:46:32.807Z,2.74
2023-05-05T09:47:33.562Z,3.22
2023-05-05T09:48:32.883Z,3.96
2023-05-05T09:49:32.875Z,4.73
2023-05-05T09:50:32.906Z,5.22
2023-05-05T09:51:32.983Z,5.85
2023-05-05T09:52:33.045Z,6.65
2023-05-05T09:53:33.165Z,7.65
2023-05-05T09:54:33.181Z,8.25
2023-05-05T09:55:33.233Z,9.55
2023-05-05T09:56:33.272Z,10.56
2023-05-05T09:57:33.321Z,13.93
2023-05-05T09:58:33.401Z,19.30
2023-05-05T09:59:33.478Z,20.82
2023-05-05T10:00:33.496Z,22.01
2023-05-05T10:01:33.589Z,17.80
2023-05-05T10:02:33.640Z,19.51
2023-05-05T10:03:33.667Z,22.89
2023-05-05T10:04:33.888Z,23.11
2023-05-05T10:05:33.777Z,22.71
2023-05-05T10:06:33.855Z,23.81
2023-05-05T10:07:33.914Z,22.78
2023-05-05T10:08:33.959Z,24.46
2023-05-05T10:09:34.067Z,25.42
2023-05-05T10:10:34.067Z,25.97
2023-05-05T10:11:34.130Z,23.65
2023-05-05T10:12:34.217Z,25.03
2023-05-05T10:13:34.221Z,23.92
2023-05-05T10:14:34.301Z,24.17
2023-05-05T10:15:34.382Z,22.88
2023-05-05T10:16:34.467Z,20.19
2023-05-05T10:17:34.475Z,12.27
2023-05-05T10:18:34.520Z,12.84
2023-05-05T10:19:34.567Z,10.34
2023-05-05T10:20:34.640Z,2.49
2023-05-05T10:21:34.704Z,1.53
2023-05-05T10:22:34.745Z,0.66
2023-05-05T10:23:34.908Z,0.44
2023-05-05T10:24:34.908Z,0.44
2023-05-05T10:25:35.046Z,0.43
2023-05-05T10:26:34.958Z,0.47
2023-05-05T10:27:35.017Z,0.50
2023-05-05T10:28:35.091Z,0.41
2023-05-05T10:29:35.164Z,0.34
2023-05-05T10:30:35.179Z,0.34
2023-05-05T10:31:35.208Z,0.51
2023-05-05T10:33:36.573Z,0.39
2023-05-05T10:34:35.310Z,0.40
2023-05-05T10:35:35.230Z,0.41
2023-05-05T10:36:35.262Z,0.34
2023-05-05T10:37:35.232Z,0.38
2023-05-05T10:38:35.218Z,0.38
2023-05-05T10:39:35.212Z,0.51
2023-05-05T10:40:35.242Z,0.57
2023-05-05T10:41:35.205Z,0.59
2023-05-05T10:42:35.277Z,0.54
2023-05-05T10:43:35.323Z,0.47
2023-05-05T10:44:35.370Z,0.53
2023-05-05T10:45:35.494Z,0.59
2023-05-05T10:46:35.604Z,0.78
2023-05-05T10:47:35.547Z,0.87
2023-05-05T10:48:35.617Z,1.14
2023-05-05T10:49:35.650Z,1.47
2023-05-05T10:50:35.717Z,2.03
2023-05-05T10:51:40.102Z,2.51
2023-05-05T10:52:36.725Z,2.53
2023-05-05T10:53:35.718Z,2.64
2023-05-05T10:54:38.190Z,3.12
2023-05-05T10:55:35.706Z,3.44
2023-05-05T10:56:35.699Z,5.61
2023-05-05T10:57:35.754Z,8.10
2023-05-05T10:58:46.989Z,7.72
2023-05-05T10:59:36.913Z,5.16
2023-05-05T11:00:35.673Z,3.14
2023-05-05T11:01:35.750Z,3.40
2023-05-05T11:02:35.703Z,3.68
2023-05-05T11:03:35.675Z,3.13
2023-05-05T11:04:35.638Z,2.67
2023-05-05T11:05:35.633Z,2.79
2023-05-05T11:06:35.645Z,2.71
2023-05-05T11:07:35.620Z,2.95
2023-05-05T11:08:35.647Z,2.56
2023-05-05T11:09:35.895Z,2.31
2023-05-05T11:10:35.608Z,2.80
2023-05-05T11:11:35.609Z,3.07
2023-05-05T11:12:37.435Z,2.62
2023-05-05T11:13:35.664Z,3.61
2023-05-05T11:14:35.604Z,4.08
2023-05-05T11:15:35.577Z,2.61
2023-05-05T11:16:35.626Z,1.99
2023-05-05T11:17:35.625Z,0.49
2023-05-05T11:18:35.569Z,0.37
2023-05-05T11:19:35.934Z,0.46
2023-05-05T11:20:35.601Z,0.44
2023-05-05T11:21:35.518Z,0.52
2023-05-05T11:22:35.563Z,0.51
2023-05-05T11:23:35.567Z,0.48
2023-05-05T11:24:35.521Z,0.52
2023-05-05T11:25:35.915Z,0.42
2023-05-05T11:26:35.517Z,0.63
2023-05-05T11:27:35.463Z,0.37
2023-05-05T11:28:35.561Z,0.43
2023-05-05T11:29:35.615Z,0.41
2023-05-05T11:30:35.457Z,0.52
2023-05-05T11:31:35.470Z,0.47
2023-05-05T11:32:35.488Z,0.42
2023-05-05T11:33:35.441Z,0.50
2023-05-05T11:34:35.446Z,0.54
2023-05-05T11:35:35.446Z,0.83
2023-05-05T11:36:35.405Z,0.87
2023-05-05T11:37:35.399Z,0.71
2023-05-05T11:38:35.409Z,0.73
2023-05-05T11:39:35.397Z,1.15
2023-05-05T11:40:35.395Z,1.94
2023-05-05T11:41:35.386Z,1.51
2023-05-05T11:42:35.388Z,0.71
2023-05-05T11:43:35.364Z,0.80
2023-05-05T11:44:35.345Z,0.86
2023-05-05T11:45:35.429Z,1.07
2023-05-05T11:46:35.465Z,1.22
2023-05-05T11:47:35.343Z,1.22
2023-05-05T11:48:35.330Z,0.71
2023-05-05T11:49:35.317Z,0.76
2023-05-05T11:50:35.317Z,0.95
2023-05-05T11:51:35.289Z,0.99
2023-05-05T11:52:35.293Z,1.22
2023-05-05T11:53:35.300Z,1.66
2023-05-05T11:54:35.275Z,2.20
2023-05-05T11:55:35.309Z,3.05
2023-05-05T11:56:35.260Z,4.75
2023-05-05T11:57:35.255Z,3.65
2023-05-05T11:58:35.254Z,3.64
2023-05-05T11:59:35.260Z,7.46
2023-05-05T12:00:35.250Z,5.67
2023-05-05T12:01:35.343Z,4.85
2023-05-05T12:02:35.331Z,4.55
2023-05-05T12:03:35.304Z,6.85
2023-05-05T12:04:35.272Z,7.82
2023-05-05T12:05:36.973Z,9.07
2023-05-05T12:06:35.183Z,24.69
2023-05-05T12:07:35.181Z,16.67
2023-05-05T12:08:35.189Z,12.32
2023-05-05T12:09:35.178Z,11.73
2023-05-05T12:10:35.165Z,9.13
2023-05-05T12:11:35.161Z,7.85
2023-05-05T12:12:35.191Z,7.47
2023-05-05T12:13:35.154Z,8.19
2023-05-05T12:14:35.140Z,10.56
2023-05-05T12:15:35.162Z,13.65
2023-05-05T12:16:35.216Z,18.87
2023-05-05T12:17:35.250Z,17.74
2023-05-05T12:18:35.105Z,11.57
2023-05-05T12:19:35.089Z,9.68
2023-05-05T12:20:35.163Z,9.68
2023-05-05T12:21:35.147Z,9.38
2023-05-05T12:22:35.076Z,8.88
2023-05-05T12:23:35.077Z,14.47
2023-05-05T12:24:35.087Z,9.40
2023-05-05T12:25:35.064Z,12.64
2023-05-05T12:26:35.050Z,11.32
2023-05-05T12:27:35.109Z,11.20
2023-05-05T12:28:35.041Z,13.87
2023-05-05T12:29:35.051Z,14.22
2023-05-05T12:30:35.060Z,25.78
2023-05-05T12:31:35.092Z,12.91
2023-05-05T12:32:35.105Z,13.76
2023-05-05T12:33:35.241Z,26.72
2023-05-05T12:34:35.178Z,30.02
2023-05-05T12:35:35.146Z,38.05
2023-05-05T12:36:35.135Z,31.81
2023-05-05T12:37:35.144Z,7.97
2023-05-05T12:38:35.189Z,3.15
2023-05-05T12:39:35.165Z,4.94
2023-05-05T12:40:35.180Z,8.34
2023-05-05T12:41:35.204Z,9.33
2023-05-05T12:42:35.220Z,10.55
2023-05-05T12:43:35.261Z,7.75
2023-05-05T12:44:35.339Z,5.61
2023-05-05T12:45:35.277Z,9.39
2023-05-05T12:46:35.337Z,5.87
2023-05-05T12:47:35.292Z,4.57
2023-05-05T12:48:35.262Z,2.97
2023-05-05T12:49:35.267Z,3.35
2023-05-05T12:50:35.316Z,5.46
2023-05-05T12:51:35.339Z,7.45
2023-05-05T12:52:35.311Z,7.82
2023-05-05T12:53:35.329Z,8.13
2023-05-05T12:54:35.329Z,6.99
2023-05-05T12:55:35.332Z,7.14
2023-05-05T12:56:35.411Z,11.90
2023-05-05T12:57:35.341Z,15.46
2023-05-05T12:58:35.458Z,10.47
2023-05-05T12:59:35.368Z,10.71
2023-05-05T13:00:35.377Z,19.16